createdAt,value
2019-01-11T00:14:14.125Z,11.31
2019-01-11T00:19:21.294Z,8.46
2019-01-11T00:24:29.378Z,11.29
2019-01-11T00:29:37.842Z,11.98
2019-01-11T00:34:57.868Z,7.96
2019-01-11T00:39:58.992Z,11.64
2019-01-11T00:45:00.362Z,9.33
2019-01-11T00:50:02.136Z,11.30
2019-01-11T00:54:48.713Z,12.53
2019-01-11T01:00:10.176Z,10.83
2019-01-11T01:10:13.949Z,15.01
2019-01-11T01:15:15.099Z,9.71
2019-01-11T01:25:19.159Z,12.99
2019-01-11T01:30:19.388Z,10.99
2019-01-11T01:35:07.566Z,10.60
2019-01-11T01:40:28.181Z,12.35
2019-01-11T01:45:29.155Z,11.98
2019-01-11T01:50:30.533Z,10.43
2019-01-11T01:55:30.688Z,10.93
2019-01-11T02:00:18.864Z,12.54
2019-01-11T02:05:38.406Z,10.79
2019-01-11T02:10:26.812Z,14.31
2019-01-11T02:15:34.070Z,11.43
2019-01-11T02:20:41.578Z,13.46
2019-01-11T02:26:01.721Z,15.86
2019-01-11T02:31:01.748Z,14.72
2019-01-11T02:35:50.068Z,12.28
2019-01-11T02:41:10.404Z,10.82
2019-01-11T02:46:10.354Z,12.12
2019-01-11T02:51:11.681Z,12.68
2019-01-11T02:56:11.753Z,11.55
2019-01-11T03:00:59.200Z,13.07
2019-01-11T03:06:06.468Z,11.12
2019-01-11T03:11:26.616Z,12.20
2019-01-11T03:21:15.926Z,11.65
2019-01-11T03:26:24.026Z,11.66
2019-01-11T03:31:32.182Z,11.56
2019-01-11T03:36:53.136Z,14.83
2019-01-11T03:41:54.225Z,15.14
2019-01-11T03:46:55.179Z,12.47
2019-01-11T03:51:56.596Z,12.19
2019-01-11T03:58:02.398Z,15.69
2019-01-11T04:02:50.804Z,12.19
2019-01-11T04:08:10.948Z,12.97
2019-01-11T04:12:58.302Z,14.36
2019-01-11T04:18:05.540Z,12.43
2019-01-11T04:23:12.845Z,13.21
2019-01-11T04:28:32.822Z,11.79
2019-01-11T04:33:34.185Z,11.79
2019-01-11T04:38:22.934Z,14.98
2019-01-11T04:43:44.169Z,10.82
2019-01-11T04:48:44.296Z,9.52
2019-01-11T04:53:31.760Z,9.84
2019-01-11T04:58:39.004Z,14.01
2019-01-11T05:03:59.208Z,16.85
2019-01-11T05:09:00.332Z,15.63
2019-01-11T05:14:00.817Z,13.11
2019-01-11T05:18:48.151Z,13.34
2019-01-11T05:24:08.462Z,17.06
2019-01-11T05:29:08.547Z,11.89
2019-01-11T05:39:12.572Z,14.57
2019-01-11T05:44:12.748Z,14.06
2019-01-11T05:48:59.968Z,17.26
2019-01-11T05:54:07.258Z,15.23
2019-01-11T05:59:14.567Z,14.73
2019-01-11T06:04:34.900Z,13.81
2019-01-11T06:09:23.124Z,17.93
2019-01-11T06:14:30.583Z,17.02
2019-01-11T06:19:50.840Z,16.52
2019-01-11T06:24:50.978Z,16.25
2019-01-11T06:29:52.148Z,15.29
2019-01-11T06:39:40.488Z,16.89
2019-01-11T06:44:48.905Z,16.07
2019-01-11T06:50:09.040Z,14.92
2019-01-11T06:55:09.318Z,17.20
2019-01-11T07:00:09.357Z,15.33
2019-01-11T07:05:10.817Z,13.42
2019-01-11T07:10:10.805Z,19.03
2019-01-11T07:14:59.534Z,19.30
2019-01-11T07:20:19.729Z,16.97
2019-01-11T07:25:08.144Z,16.51
2019-01-11T07:30:28.367Z,14.65
2019-01-11T07:35:15.844Z,19.21
2019-01-11T07:40:35.846Z,17.37
2019-01-11T07:45:36.942Z,17.54
2019-01-11T07:50:37.922Z,18.00
2019-01-11T07:55:39.128Z,21.68
2019-01-11T08:00:39.265Z,22.85
2019-01-11T08:15:49.510Z,29.05
2019-01-11T08:20:56.013Z,25.43
2019-01-11T08:25:49.851Z,24.41
2019-01-11T08:30:38.409Z,27.61
2019-01-11T08:35:58.884Z,28.78
2019-01-11T08:40:47.331Z,38.21
2019-01-11T08:46:07.815Z,32.80
2019-01-11T08:51:07.932Z,45.76
2019-01-11T08:55:55.049Z,38.81
2019-01-11T09:06:19.826Z,38.23
2019-01-11T09:11:20.876Z,30.44
2019-01-11T09:16:21.414Z,34.47
2019-01-11T09:21:09.648Z,33.53
2019-01-11T09:36:36.738Z,27.69
2019-01-11T09:41:36.872Z,27.24
2019-01-11T09:46:37.365Z,19.20
2019-01-11T09:51:37.632Z,17.65
2019-01-11T10:01:41.661Z,16.97
2019-01-11T10:06:43.033Z,16.38
2019-01-11T10:11:43.125Z,18.41
2019-01-11T10:16:43.225Z,16.38
2019-01-11T10:21:44.384Z,17.88
2019-01-11T10:26:44.807Z,18.38
2019-01-11T10:31:32.045Z,20.31
2019-01-11T10:36:39.264Z,16.37
2019-01-11T10:42:00.416Z,19.19
2019-01-11T10:46:49.157Z,19.47
2019-01-11T10:51:55.153Z,19.08
2019-01-11T10:57:02.805Z,13.27
2019-01-11T11:02:10.075Z,13.71
2019-01-11T11:07:30.514Z,15.43
2019-01-11T11:12:30.791Z,13.41
2019-01-11T11:17:18.271Z,11.91
2019-01-11T11:22:38.417Z,20.85
2019-01-11T11:27:26.507Z,14.22
2019-01-11T11:32:33.702Z,14.01
2019-01-11T11:37:54.188Z,9.22
2019-01-11T11:42:54.357Z,9.84
2019-01-11T11:47:41.771Z,10.59
2019-01-11T11:52:48.990Z,12.17
2019-01-11T11:58:10.855Z,13.60
2019-01-11T12:03:12.038Z,9.57
2019-01-11T12:08:00.371Z,9.61
2019-01-11T12:13:07.708Z,8.43
2019-01-11T12:18:28.908Z,7.64
2019-01-11T12:23:29.038Z,7.92
2019-01-11T12:28:30.277Z,5.46
2019-01-11T12:33:30.292Z,8.18
2019-01-11T12:38:31.508Z,5.75
2019-01-11T12:43:32.754Z,5.59
2019-01-11T12:48:32.955Z,4.69
2019-01-11T12:53:32.946Z,4.13
2019-01-11T12:58:34.769Z,5.25
2019-01-11T13:03:34.768Z,5.42
2019-01-11T13:08:23.160Z,4.81
2019-01-11T13:13:43.301Z,6.72
2019-01-11T13:18:43.671Z,3.65
2019-01-11T13:23:43.869Z,2.72
2019-01-11T13:28:31.284Z,3.11
2019-01-11T13:38:40.554Z,4.98
2019-01-11T13:43:47.740Z,3.17
2019-01-11T13:49:08.010Z,6.43
2019-01-11T13:53:56.259Z,8.05
2019-01-11T13:59:04.273Z,6.09
2019-01-11T14:04:24.408Z,4.47
2019-01-11T14:09:24.853Z,5.37
2019-01-11T14:14:12.056Z,6.85
2019-01-11T14:19:20.488Z,6.61
2019-01-11T14:24:40.554Z,7.08
2019-01-11T14:29:29.054Z,5.42
2019-01-11T14:34:49.161Z,4.66
2019-01-11T14:39:36.805Z,5.53
2019-01-11T14:44:56.862Z,6.84
2019-01-11T14:49:58.246Z,5.25
2019-01-11T14:54:45.479Z,6.89
2019-01-11T15:05:09.476Z,10.04
2019-01-11T15:09:56.805Z,5.59
2019-01-11T15:15:16.956Z,8.58
2019-01-11T15:20:17.274Z,8.32
2019-01-11T15:25:17.536Z,6.97
2019-01-11T15:35:08.735Z,9.27
2019-01-11T15:40:16.110Z,10.32
2019-01-11T15:45:36.056Z,10.18
2019-01-11T15:50:37.348Z,7.71
2019-01-11T15:55:24.626Z,7.25
2019-01-11T16:00:45.230Z,7.20
2019-01-11T16:05:45.366Z,10.08
2019-01-11T16:15:49.264Z,11.39
2019-01-11T16:20:50.564Z,11.47
2019-01-11T16:25:50.677Z,13.69
2019-01-11T16:30:51.072Z,12.12
2019-01-11T16:35:38.285Z,9.19
2019-01-11T16:40:45.509Z,10.86
2019-01-11T16:46:06.502Z,10.82
2019-01-11T16:50:54.824Z,10.76
2019-01-11T16:56:14.987Z,13.51
2019-01-11T17:01:02.622Z,11.81
2019-01-11T17:06:09.716Z,13.96
2019-01-11T17:11:20.281Z,15.24
2019-01-11T17:16:40.297Z,13.59
2019-01-11T17:26:29.411Z,12.10
2019-01-11T17:31:36.643Z,15.78
2019-01-11T17:36:57.592Z,12.76
2019-01-11T17:41:58.655Z,12.91
2019-01-11T17:46:46.798Z,15.95
2019-01-11T17:52:08.004Z,13.93
2019-01-11T17:57:08.031Z,15.52
2019-01-11T18:02:09.292Z,13.52
2019-01-11T18:06:56.603Z,15.05
2019-01-11T18:12:20.166Z,13.15
2019-01-11T18:17:21.507Z,11.89
2019-01-11T18:22:07.933Z,13.20
2019-01-11T18:27:15.142Z,11.70
2019-01-11T18:37:23.423Z,9.84
2019-01-11T18:42:31.020Z,12.92
2019-01-11T18:47:38.198Z,10.31
2019-01-11T18:52:45.426Z,10.44
2019-01-11T18:57:53.551Z,10.96
2019-01-11T19:03:00.977Z,9.75
2019-01-11T19:08:08.233Z,13.27
2019-01-11T19:13:15.928Z,12.11
2019-01-11T19:18:24.417Z,10.02
2019-01-11T19:23:31.784Z,9.33
2019-01-11T19:28:38.923Z,13.19
2019-01-11T19:34:00.056Z,13.25
2019-01-11T19:38:48.281Z,13.15
2019-01-11T19:43:55.652Z,13.04
2019-01-11T19:54:03.831Z,16.82
2019-01-11T20:04:24.641Z,18.62
2019-01-11T20:09:25.756Z,18.99
2019-01-11T20:14:13.184Z,17.08
2019-01-11T20:19:20.404Z,14.75
2019-01-11T20:24:27.801Z,16.74
2019-01-11T20:29:35.056Z,15.26
2019-01-11T20:34:55.320Z,15.51
2019-01-11T20:39:42.645Z,10.34
2019-01-11T20:44:49.983Z,11.37
2019-01-11T20:49:58.195Z,9.75
2019-01-11T20:55:05.583Z,10.82
2019-01-11T21:00:12.790Z,8.59
2019-01-11T21:05:20.104Z,9.58
2019-01-11T21:10:41.290Z,10.23
2019-01-11T21:15:28.669Z,8.97
2019-01-11T21:20:35.851Z,8.88
2019-01-11T21:25:43.274Z,10.96
2019-01-11T21:30:57.118Z,9.46
2019-01-11T21:35:57.836Z,10.73
2019-01-11T21:41:06.089Z,8.44
2019-01-11T21:46:14.287Z,11.05
2019-01-11T21:51:22.542Z,7.27
2019-01-11T21:56:42.725Z,8.67
2019-01-11T22:01:30.961Z,9.61
2019-01-11T22:06:41.210Z,8.49
2019-01-11T22:11:39.309Z,10.45
2019-01-11T22:16:47.747Z,8.44
2019-01-11T22:21:55.039Z,7.99
2019-01-11T22:27:02.349Z,7.55
2019-01-11T22:32:09.644Z,3.90
2019-01-11T22:37:16.819Z,6.17
2019-01-11T22:42:25.044Z,8.04
2019-01-11T22:47:32.151Z,7.93
2019-01-11T22:52:53.287Z,7.55
2019-01-11T22:57:53.351Z,11.87
2019-01-11T23:07:55.482Z,7.31
2019-01-11T23:12:55.513Z,7.57
2019-01-11T23:17:56.739Z,7.86
2019-01-11T23:22:43.920Z,5.98
2019-01-11T23:27:51.285Z,6.87
2019-01-11T23:37:59.585Z,9.55
2019-01-11T23:43:19.557Z,9.53
2019-01-11T23:48:07.897Z,11.44
2019-01-11T23:53:28.010Z,11.26
2019-01-11T23:58:28.179Z,17.31
